sensor_id;sensor_type;location;lat;lon;timestamp;pressure;altitude;pressure_sealevel;temperature;humidity
64841;BME280;51307;52.162;7.560;2023-02-04T00:00:57;102504.00;;;6.46;62.23
64841;BME280;51307;52.162;7.560;2023-02-04T00:03:22;102509.78;;;6.08;63.32
64841;BME280;51307;52.162;7.560;2023-02-04T00:05:51;102499.22;;;6.06;62.68
64841;BME280;51307;52.162;7.560;2023-02-04T00:08:19;102495.75;;;6.51;61.54
64841;BME280;51307;52.162;7.560;2023-02-04T00:10:44;102507.31;;;6.35;62.31
64841;BME280;51307;52.162;7.560;2023-02-04T00:13:11;102500.06;;;6.23;62.34
64841;BME280;51307;52.162;7.560;2023-02-04T00:15:37;102514.78;;;6.59;61.26
64841;BME280;51307;52.162;7.560;2023-02-04T00:18:02;102509.47;;;6.59;61.33
64841;BME280;51307;52.162;7.560;2023-02-04T00:20:30;102510.72;;;6.37;62.02
64841;BME280;51307;52.162;7.560;2023-02-04T00:22:55;102514.75;;;5.98;62.64
64841;BME280;51307;52.162;7.560;2023-02-04T00:25:21;102510.16;;;6.32;62.33
64841;BME280;51307;52.162;7.560;2023-02-04T00:27:46;102517.78;;;6.22;62.30
64841;BME280;51307;52.162;7.560;2023-02-04T00:30:12;102529.44;;;6.20;62.32
64841;BME280;51307;52.162;7.560;2023-02-04T00:32:38;102535.22;;;6.43;61.87
64841;BME280;51307;52.162;7.560;2023-02-04T00:35:04;102539.31;;;6.48;61.87
64841;BME280;51307;52.162;7.560;2023-02-04T00:37:30;102541.56;;;6.26;62.04
64841;BME280;51307;52.162;7.560;2023-02-04T00:39:56;102545.97;;;5.95;63.19
64841;BME280;51307;52.162;7.560;2023-02-04T00:42:22;102545.50;;;6.18;62.60
64841;BME280;51307;52.162;7.560;2023-02-04T00:44:48;102546.16;;;6.38;61.87
64841;BME280;51307;52.162;7.560;2023-02-04T00:47:13;102540.09;;;6.20;62.63
64841;BME280;51307;52.162;7.560;2023-02-04T00:49:39;102544.28;;;6.24;62.81
64841;BME280;51307;52.162;7.560;2023-02-04T00:52:04;102554.16;;;6.22;62.45
64841;BME280;51307;52.162;7.560;2023-02-04T00:54:30;102546.63;;;6.14;62.65
64841;BME280;51307;52.162;7.560;2023-02-04T00:56:58;102557.69;;;6.06;63.08
64841;BME280;51307;52.162;7.560;2023-02-04T00:59:24;102565.84;;;5.87;64.01
64841;BME280;51307;52.162;7.560;2023-02-04T01:01:49;102570.91;;;6.08;63.39
64841;BME280;51307;52.162;7.560;2023-02-04T01:04:16;102565.47;;;6.26;63.25
64841;BME280;51307;52.162;7.560;2023-02-04T01:06:41;102566.53;;;5.91;64.34
64841;BME280;51307;52.162;7.560;2023-02-04T01:09:07;102580.13;;;6.17;63.61
64841;BME280;51307;52.162;7.560;2023-02-04T01:11:32;102579.13;;;5.87;64.46
64841;BME280;51307;52.162;7.560;2023-02-04T01:13:58;102591.56;;;6.19;63.45
64841;BME280;51307;52.162;7.560;2023-02-04T01:16:24;102584.00;;;6.11;63.44
64841;BME280;51307;52.162;7.560;2023-02-04T01:18:50;102584.94;;;6.10;63.81
64841;BME280;51307;52.162;7.560;2023-02-04T01:21:16;102589.00;;;6.01;64.13
64841;BME280;51307;52.162;7.560;2023-02-04T01:23:41;102589.66;;;5.89;64.30
64841;BME280;51307;52.162;7.560;2023-02-04T01:26:07;102603.88;;;6.20;63.98
64841;BME280;51307;52.162;7.560;2023-02-04T01:28:32;102596.69;;;5.90;64.65
64841;BME280;51307;52.162;7.560;2023-02-04T01:30:58;102597.03;;;6.16;64.23
64841;BME280;51307;52.162;7.560;2023-02-04T01:33:23;102614.28;;;6.09;64.18
64841;BME280;51307;52.162;7.560;2023-02-04T01:35:52;102613.31;;;6.26;63.32
64841;BME280;51307;52.162;7.560;2023-02-04T01:38:17;102612.41;;;6.11;64.23
64841;BME280;51307;52.162;7.560;2023-02-04T01:40:43;102609.28;;;6.02;64.45
64841;BME280;51307;52.162;7.560;2023-02-04T01:43:10;102613.06;;;5.98;64.62
64841;BME280;51307;52.162;7.560;2023-02-04T01:45:36;102610.59;;;5.95;64.51
64841;BME280;51307;52.162;7.560;2023-02-04T01:48:03;102613.91;;;6.31;63.71
64841;BME280;51307;52.162;7.560;2023-02-04T01:50:29;102617.66;;;6.43;63.42
64841;BME280;51307;52.162;7.560;2023-02-04T01:52:55;102623.44;;;6.19;64.20
64841;BME280;51307;52.162;7.560;2023-02-04T01:55:25;102612.81;;;5.87;64.90
64841;BME280;51307;52.162;7.560;2023-02-04T01:57:52;102624.28;;;5.87;65.14
64841;BME280;51307;52.162;7.560;2023-02-04T02:00:28;102625.22;;;6.02;64.92
64841;BME280;51307;52.162;7.560;2023-02-04T02:03:00;102631.84;;;6.27;64.10
64841;BME280;51307;52.162;7.560;2023-02-04T02:05:49;102635.78;;;6.20;64.30
64841;BME280;51307;52.162;7.560;2023-02-04T02:08:22;102638.19;;;6.24;64.04
64841;BME280;51307;52.162;7.560;2023-02-04T02:10:50;102643.75;;;6.20;63.93
64841;BME280;51307;52.162;7.560;2023-02-04T02:13:18;102649.84;;;6.06;64.57
64841;BME280;51307;52.162;7.560;2023-02-04T02:15:44;102649.50;;;6.12;64.78
64841;BME280;51307;52.162;7.560;2023-02-04T02:18:11;102662.34;;;5.88;65.56
64841;BME280;51307;52.162;7.560;2023-02-04T02:20:37;102663.75;;;6.43;63.74
64841;BME280;51307;52.162;7.560;2023-02-04T02:25:50;102679.69;;;6.59;63.43
64841;BME280;51307;52.162;7.560;2023-02-04T02:28:19;102665.28;;;6.47;63.48
64841;BME280;51307;52.162;7.560;2023-02-04T02:30:47;102673.78;;;6.38;63.72
64841;BME280;51307;52.162;7.560;2023-02-04T02:33:16;102676.47;;;6.68;63.11
64841;BME280;51307;52.162;7.560;2023-02-04T02:35:45;102667.94;;;6.31;63.89
64841;BME280;51307;52.162;7.560;2023-02-04T02:38:14;102672.13;;;6.19;64.42
64841;BME280;51307;52.162;7.560;2023-02-04T02:40:40;102669.06;;;6.27;64.19
64841;BME280;51307;52.162;7.560;2023-02-04T02:43:09;102670.31;;;5.88;65.56
64841;BME280;51307;52.162;7.560;2023-02-04T02:45:38;102671.81;;;6.26;64.71
64841;BME280;51307;52.162;7.560;2023-02-04T02:48:03;102673.34;;;6.14;64.81
64841;BME280;51307;52.162;7.560;2023-02-04T02:50:31;102678.03;;;5.93;65.39
64841;BME280;51307;52.162;7.560;2023-02-04T02:52:57;102675.22;;;6.12;64.99
64841;BME280;51307;52.162;7.560;2023-02-04T02:55:25;102665.28;;;6.31;64.29
64841;BME280;51307;52.162;7.560;2023-02-04T02:57:54;102668.69;;;6.33;64.25
64841;BME280;51307;52.162;7.560;2023-02-04T03:00:24;102678.84;;;6.11;64.87
64841;BME280;51307;52.162;7.560;2023-02-04T03:03:01;102676.06;;;6.44;63.73
64841;BME280;51307;52.162;7.560;2023-02-04T03:05:33;102675.66;;;6.36;64.12
64841;BME280;51307;52.162;7.560;2023-02-04T03:08:00;102687.16;;;6.52;63.81
64841;BME280;51307;52.162;7.560;2023-02-04T03:10:26;102678.72;;;6.60;63.46
64841;BME280;51307;52.162;7.560;2023-02-04T03:12:52;102674.69;;;6.53;63.68
64841;BME280;51307;52.162;7.560;2023-02-04T03:15:18;102680.63;;;6.26;64.65
64841;BME280;51307;52.162;7.560;2023-02-04T03:17:45;102681.66;;;6.39;64.16
64841;BME280;51307;52.162;7.560;2023-02-04T03:22:39;102683.72;;;6.34;64.52
64841;BME280;51307;52.162;7.560;2023-02-04T03:25:05;102684.13;;;6.27;64.60
64841;BME280;51307;52.162;7.560;2023-02-04T03:27:31;102692.53;;;6.67;63.44
64841;BME280;51307;52.162;7.560;2023-02-04T03:29:57;102687.81;;;6.56;63.71
64841;BME280;51307;52.162;7.560;2023-02-04T03:32:23;102690.16;;;6.46;63.88
64841;BME280;51307;52.162;7.560;2023-02-04T03:34:48;102695.53;;;6.77;63.35
64841;BME280;51307;52.162;7.560;2023-02-04T03:37:14;102696.91;;;6.68;63.47
64841;BME280;51307;52.162;7.560;2023-02-04T03:39:40;102703.06;;;6.68;63.59
64841;BME280;51307;52.162;7.560;2023-02-04T03:42:05;102697.50;;;6.57;63.74
64841;BME280;51307;52.162;7.560;2023-02-04T03:44:31;102704.88;;;6.68;63.41
64841;BME280;51307;52.162;7.560;2023-02-04T03:46:56;102700.69;;;6.64;63.62
64841;BME280;51307;52.162;7.560;2023-02-04T03:49:24;102707.34;;;6.71;63.37
64841;BME280;51307;52.162;7.560;2023-02-04T03:51:50;102711.91;;;6.69;63.68
64841;BME280;51307;52.162;7.560;2023-02-04T03:54:15;102707.53;;;6.68;63.71
64841;BME280;51307;52.162;7.560;2023-02-04T03:56:41;102712.69;;;6.71;63.57
64841;BME280;51307;52.162;7.560;2023-02-04T03:59:06;102714.34;;;6.42;64.52
64841;BME280;51307;52.162;7.560;2023-02-04T04:01:32;102717.53;;;6.32;64.47
64841;BME280;51307;52.162;7.560;2023-02-04T04:03:57;102718.88;;;6.55;64.33
64841;BME280;51307;52.162;7.560;2023-02-04T04:06:23;102721.88;;;6.33;64.99
64841;BME280;51307;52.162;7.560;2023-02-04T04:08:48;102726.34;;;6.33;64.64
64841;BME280;51307;52.162;7.560;2023-02-04T04:11:14;102730.03;;;6.30;64.97
64841;BME280;51307;52.162;7.560;2023-02-04T04:13:40;102739.63;;;6.33;64.57
64841;BME280;51307;52.162;7.560;2023-02-04T04:16:06;102742.09;;;6.20;65.37
64841;BME280;51307;52.162;7.560;2023-02-04T04:18:32;102739.97;;;6.43;64.44
64841;BME280;51307;52.162;7.560;2023-02-04T04:20:58;102745.81;;;6.33;65.23
64841;BME280;51307;52.162;7.560;2023-02-04T04:23:24;102753.78;;;6.33;65.14
64841;BME280;51307;52.162;7.560;2023-02-04T04:25:49;102756.03;;;6.73;63.77
64841;BME280;51307;52.162;7.560;2023-02-04T04:28:15;102760.22;;;6.61;63.99
64841;BME280;51307;52.162;7.560;2023-02-04T04:30:40;102762.81;;;6.63;64.03
64841;BME280;51307;52.162;7.560;2023-02-04T04:33:06;102766.94;;;6.36;64.98
64841;BME280;51307;52.162;7.560;2023-02-04T04:35:31;102770.00;;;6.45;64.42
64841;BME280;51307;52.162;7.560;2023-02-04T04:37:57;102767.34;;;6.45;64.90
64841;BME280;51307;52.162;7.560;2023-02-04T04:40:23;102772.91;;;6.56;64.44
64841;BME280;51307;52.162;7.560;2023-02-04T04:42:48;102781.09;;;6.69;64.05
64841;BME280;51307;52.162;7.560;2023-02-04T04:45:14;102784.69;;;6.84;63.49
64841;BME280;51307;52.162;7.560;2023-02-04T04:47:39;102784.25;;;6.76;63.72
64841;BME280;51307;52.162;7.560;2023-02-04T04:50:05;102780.28;;;6.51;64.26
64841;BME280;51307;52.162;7.560;2023-02-04T04:52:30;102782.81;;;6.54;64.24
64841;BME280;51307;52.162;7.560;2023-02-04T04:54:56;102787.94;;;6.57;64.40
64841;BME280;51307;52.162;7.560;2023-02-04T04:57:21;102788.44;;;6.48;64.58
64841;BME280;51307;52.162;7.560;2023-02-04T04:59:47;102791.72;;;6.69;63.68
64841;BME280;51307;52.162;7.560;2023-02-04T05:02:12;102792.25;;;6.76;63.87
64841;BME280;51307;52.162;7.560;2023-02-04T05:04:38;102793.59;;;6.83;63.72
64841;BME280;51307;52.162;7.560;2023-02-04T05:07:04;102793.19;;;6.74;63.72
64841;BME280;51307;52.162;7.560;2023-02-04T05:09:29;102794.81;;;6.61;64.10
64841;BME280;51307;52.162;7.560;2023-02-04T05:11:55;102809.16;;;6.74;64.00
64841;BME280;51307;52.162;7.560;2023-02-04T05:14:21;102811.47;;;6.81;63.66
64841;BME280;51307;52.162;7.560;2023-02-04T05:16:46;102821.47;;;6.44;64.59
64841;BME280;51307;52.162;7.560;2023-02-04T05:19:12;102825.78;;;6.62;64.10
64841;BME280;51307;52.162;7.560;2023-02-04T05:21:37;102825.19;;;6.57;64.23
64841;BME280;51307;52.162;7.560;2023-02-04T05:24:03;102839.56;;;6.37;64.89
64841;BME280;51307;52.162;7.560;2023-02-04T05:26:31;102840.25;;;6.40;64.97
64841;BME280;51307;52.162;7.560;2023-02-04T05:28:57;102837.44;;;6.44;64.72
64841;BME280;51307;52.162;7.560;2023-02-04T05:31:24;102839.06;;;6.46;64.60
64841;BME280;51307;52.162;7.560;2023-02-04T05:33:50;102847.81;;;6.48;64.48
64841;BME280;51307;52.162;7.560;2023-02-04T05:36:16;102844.31;;;6.64;64.37
64841;BME280;51307;52.162;7.560;2023-02-04T05:38:42;102843.69;;;6.43;64.73
64841;BME280;51307;52.162;7.560;2023-02-04T05:41:07;102840.41;;;6.21;65.40
64841;BME280;51307;52.162;7.560;2023-02-04T05:43:33;102848.59;;;6.17;65.71
64841;BME280;51307;52.162;7.560;2023-02-04T05:45:59;102849.22;;;6.71;64.30
64841;BME280;51307;52.162;7.560;2023-02-04T05:48:25;102844.06;;;6.68;64.30
64841;BME280;51307;52.162;7.560;2023-02-04T05:50:50;102855.56;;;6.53;64.45
64841;BME280;51307;52.162;7.560;2023-02-04T05:53:16;102858.25;;;6.35;64.81
64841;BME280;51307;52.162;7.560;2023-02-04T05:55:41;102864.19;;;6.40;65.00
64841;BME280;51307;52.162;7.560;2023-02-04T05:58:07;102864.19;;;6.40;64.82
64841;BME280;51307;52.162;7.560;2023-02-04T06:00:32;102871.00;;;6.62;64.51
64841;BME280;51307;52.162;7.560;2023-02-04T06:02:58;102871.47;;;6.37;64.99
64841;BME280;51307;52.162;7.560;2023-02-04T06:05:23;102870.94;;;6.30;65.33
64841;BME280;51307;52.162;7.560;2023-02-04T06:07:49;102876.69;;;6.38;64.94
64841;BME280;51307;52.162;7.560;2023-02-04T06:10:15;102873.75;;;6.61;64.28
64841;BME280;51307;52.162;7.560;2023-02-04T06:12:40;102879.31;;;6.56;64.58
64841;BME280;51307;52.162;7.560;2023-02-04T06:15:06;102879.84;;;6.29;65.11
64841;BME280;51307;52.162;7.560;2023-02-04T06:17:32;102890.31;;;6.50;64.63
64841;BME280;51307;52.162;7.560;2023-02-04T06:19:57;102892.50;;;6.42;64.81
64841;BME280;51307;52.162;7.560;2023-02-04T06:22:23;102883.44;;;6.46;64.82
64841;BME280;51307;52.162;7.560;2023-02-04T06:24:50;102889.59;;;6.46;64.75
64841;BME280;51307;52.162;7.560;2023-02-04T06:27:16;102886.19;;;6.60;64.56
64841;BME280;51307;52.162;7.560;2023-02-04T06:29:48;102889.38;;;6.33;65.22
64841;BME280;51307;52.162;7.560;2023-02-04T06:32:15;102890.78;;;6.40;65.14
64841;BME280;51307;52.162;7.560;2023-02-04T06:34:41;102897.66;;;6.45;64.92
64841;BME280;51307;52.162;7.560;2023-02-04T06:37:06;102895.16;;;6.42;64.75
64841;BME280;51307;52.162;7.560;2023-02-04T06:39:32;102906.00;;;6.54;64.44
64841;BME280;51307;52.162;7.560;2023-02-04T06:41:57;102906.88;;;6.37;64.92
64841;BME280;51307;52.162;7.560;2023-02-04T06:44:23;102909.88;;;6.31;65.09
64841;BME280;51307;52.162;7.560;2023-02-04T06:46:48;102931.63;;;6.22;65.38
64841;BME280;51307;52.162;7.560;2023-02-04T06:49:14;102923.78;;;6.54;64.84
64841;BME280;51307;52.162;7.560;2023-02-04T06:51:39;102928.38;;;6.50;64.74
64841;BME280;51307;52.162;7.560;2023-02-04T06:54:05;102930.22;;;6.32;65.09
64841;BME280;51307;52.162;7.560;2023-02-04T06:56:30;102940.28;;;6.43;64.94
64841;BME280;51307;52.162;7.560;2023-02-04T06:58:56;102939.47;;;6.58;64.49
64841;BME280;51307;52.162;7.560;2023-02-04T07:01:21;102937.47;;;6.46;64.32
64841;BME280;51307;52.162;7.560;2023-02-04T07:03:47;102944.91;;;6.39;64.70
64841;BME280;51307;52.162;7.560;2023-02-04T07:06:12;102936.75;;;6.43;64.62
64841;BME280;51307;52.162;7.560;2023-02-04T07:08:38;102933.56;;;6.69;63.77
64841;BME280;51307;52.162;7.560;2023-02-04T07:11:03;102945.81;;;6.56;64.17
64841;BME280;51307;52.162;7.560;2023-02-04T07:13:29;102950.50;;;6.51;63.58
64841;BME280;51307;52.162;7.560;2023-02-04T07:15:54;102952.03;;;6.72;63.16
64841;BME280;51307;52.162;7.560;2023-02-04T07:18:20;102958.75;;;6.80;62.66
64841;BME280;51307;52.162;7.560;2023-02-04T07:20:45;102957.53;;;6.69;62.75
64841;BME280;51307;52.162;7.560;2023-02-04T07:23:11;102961.19;;;6.67;62.36
64841;BME280;51307;52.162;7.560;2023-02-04T07:25:37;102964.41;;;6.73;61.73
64841;BME280;51307;52.162;7.560;2023-02-04T07:28:03;102961.72;;;6.73;61.55
64841;BME280;51307;52.162;7.560;2023-02-04T07:30:33;102965.53;;;6.52;61.38
64841;BME280;51307;52.162;7.560;2023-02-04T07:32:58;102974.66;;;6.64;60.72
64841;BME280;51307;52.162;7.560;2023-02-04T07:35:24;102977.16;;;6.67;60.27
64841;BME280;51307;52.162;7.560;2023-02-04T07:37:49;102967.41;;;6.67;60.07
64841;BME280;51307;52.162;7.560;2023-02-04T07:40:15;102966.94;;;6.59;60.12
64841;BME280;51307;52.162;7.560;2023-02-04T07:42:41;102969.28;;;6.48;60.15
64841;BME280;51307;52.162;7.560;2023-02-04T07:45:07;102971.66;;;6.54;60.04
64841;BME280;51307;52.162;7.560;2023-02-04T07:47:33;102973.59;;;6.50;59.93
64841;BME280;51307;52.162;7.560;2023-02-04T07:49:58;102982.59;;;6.48;59.80
64841;BME280;51307;52.162;7.560;2023-02-04T07:52:24;102993.22;;;6.48;59.84
64841;BME280;51307;52.162;7.560;2023-02-04T07:54:50;102992.66;;;6.58;59.71
64841;BME280;51307;52.162;7.560;2023-02-04T07:57:18;102997.44;;;6.52;59.70
64841;BME280;51307;52.162;7.560;2023-02-04T07:59:43;102996.69;;;6.50;59.57
64841;BME280;51307;52.162;7.560;2023-02-04T08:02:11;103003.41;;;6.57;59.33
64841;BME280;51307;52.162;7.560;2023-02-04T08:04:36;103012.31;;;6.56;59.14
64841;BME280;51307;52.162;7.560;2023-02-04T08:07:03;103009.16;;;6.65;58.84
64841;BME280;51307;52.162;7.560;2023-02-04T08:09:28;103020.28;;;6.56;59.18
64841;BME280;51307;52.162;7.560;2023-02-04T08:11:54;103012.94;;;6.61;58.71
64841;BME280;51307;52.162;7.560;2023-02-04T08:14:20;103019.97;;;6.62;58.51
64841;BME280;51307;52.162;7.560;2023-02-04T08:16:45;103030.78;;;6.59;58.49
64841;BME280;51307;52.162;7.560;2023-02-04T08:19:11;103025.53;;;6.57;58.64
64841;BME280;51307;52.162;7.560;2023-02-04T08:21:46;103030.63;;;6.62;58.48
64841;BME280;51307;52.162;7.560;2023-02-04T08:24:13;103033.50;;;6.57;58.28
64841;BME280;51307;52.162;7.560;2023-02-04T08:26:40;103034.47;;;6.56;58.44
64841;BME280;51307;52.162;7.560;2023-02-04T08:29:06;103040.25;;;6.65;58.22
64841;BME280;51307;52.162;7.560;2023-02-04T08:31:32;103047.75;;;6.56;58.30
64841;BME280;51307;52.162;7.560;2023-02-04T08:33:58;103050.97;;;6.46;58.47
64841;BME280;51307;52.162;7.560;2023-02-04T08:36:23;103056.22;;;6.65;57.97
64841;BME280;51307;52.162;7.560;2023-02-04T08:38:49;103057.59;;;6.54;58.14
64841;BME280;51307;52.162;7.560;2023-02-04T08:41:14;103051.44;;;6.54;58.05
64841;BME280;51307;52.162;7.560;2023-02-04T08:43:40;103061.81;;;6.58;58.05
64841;BME280;51307;52.162;7.560;2023-02-04T08:46:05;103060.34;;;6.53;57.72
64841;BME280;51307;52.162;7.560;2023-02-04T08:48:31;103058.06;;;6.63;57.51
64841;BME280;51307;52.162;7.560;2023-02-04T08:50:57;103064.28;;;6.63;57.61
64841;BME280;51307;52.162;7.560;2023-02-04T08:53:22;103071.06;;;6.69;57.31
64841;BME280;51307;52.162;7.560;2023-02-04T08:55:48;103064.03;;;6.68;57.36
64841;BME280;51307;52.162;7.560;2023-02-04T08:58:13;103068.97;;;6.58;57.59
64841;BME280;51307;52.162;7.560;2023-02-04T09:00:39;103069.59;;;6.63;57.37
64841;BME280;51307;52.162;7.560;2023-02-04T09:03:04;103078.16;;;6.68;57.37
64841;BME280;51307;52.162;7.560;2023-02-04T09:05:30;103077.03;;;6.74;57.16
64841;BME280;51307;52.162;7.560;2023-02-04T09:07:55;103075.22;;;6.57;57.05
64841;BME280;51307;52.162;7.560;2023-02-04T09:10:21;103084.13;;;6.73;56.60
64841;BME280;51307;52.162;7.560;2023-02-04T09:12:46;103081.25;;;6.61;56.92
64841;BME280;51307;52.162;7.560;2023-02-04T09:15:12;103094.63;;;6.59;57.10
64841;BME280;51307;52.162;7.560;2023-02-04T09:17:37;103090.16;;;6.77;56.62
64841;BME280;51307;52.162;7.560;2023-02-04T09:20:04;103088.34;;;6.78;56.38
64841;BME280;51307;52.162;7.560;2023-02-04T09:22:30;103091.31;;;6.89;56.31
64841;BME280;51307;52.162;7.560;2023-02-04T09:24:55;103090.25;;;6.76;56.67
64841;BME280;51307;52.162;7.560;2023-02-04T09:27:21;103087.69;;;6.90;56.75
64841;BME280;51307;52.162;7.560;2023-02-04T09:29:47;103082.94;;;6.97;55.75
64841;BME280;51307;52.162;7.560;2023-02-04T09:32:12;103082.31;;;6.91;55.36
64841;BME280;51307;52.162;7.560;2023-02-04T09:34:38;103081.00;;;7.00;55.13
64841;BME280;51307;52.162;7.560;2023-02-04T09:37:03;103083.50;;;6.68;56.38
64841;BME280;51307;52.162;7.560;2023-02-04T09:39:29;103091.41;;;7.05;55.80
64841;BME280;51307;52.162;7.560;2023-02-04T09:41:55;103091.91;;;6.96;55.64
64841;BME280;51307;52.162;7.560;2023-02-04T09:44:24;103096.03;;;7.01;55.54
64841;BME280;51307;52.162;7.560;2023-02-04T09:46:54;103098.91;;;6.97;55.59
64841;BME280;51307;52.162;7.560;2023-02-04T09:49:20;103092.81;;;6.95;55.47
64841;BME280;51307;52.162;7.560;2023-02-04T09:51:47;103100.72;;;6.96;55.83
64841;BME280;51307;52.162;7.560;2023-02-04T09:54:17;103101.44;;;7.00;55.35
64841;BME280;51307;52.162;7.560;2023-02-04T09:56:42;103117.78;;;7.10;55.56
64841;BME280;51307;52.162;7.560;2023-02-04T09:59:19;103122.97;;;6.95;56.03
64841;BME280;51307;52.162;7.560;2023-02-04T10:02:00;103119.69;;;7.07;55.75
64841;BME280;51307;52.162;7.560;2023-02-04T10:04:27;103127.50;;;7.11;55.94
64841;BME280;51307;52.162;7.560;2023-02-04T10:06:55;103125.53;;;7.14;55.23
64841;BME280;51307;52.162;7.560;2023-02-04T10:09:23;103123.59;;;7.00;55.14
64841;BME280;51307;52.162;7.560;2023-02-04T10:11:49;103128.72;;;7.21;54.75
64841;BME280;51307;52.162;7.560;2023-02-04T10:14:18;103124.09;;;7.24;55.13
64841;BME280;51307;52.162;7.560;2023-02-04T10:16:56;103128.88;;;7.18;55.06
64841;BME280;51307;52.162;7.560;2023-02-04T10:19:23;103130.31;;;7.25;54.20
64841;BME280;51307;52.162;7.560;2023-02-04T10:21:50;103138.28;;;7.25;54.26
64841;BME280;51307;52.162;7.560;2023-02-04T10:24:19;103142.00;;;7.05;55.17
64841;BME280;51307;52.162;7.560;2023-02-04T10:26:46;103156.59;;;7.31;54.84
64841;BME280;51307;52.162;7.560;2023-02-04T10:29:15;103148.38;;;7.36;55.12
64841;BME280;51307;52.162;7.560;2023-02-04T10:31:44;103139.34;;;7.38;54.55
64841;BME280;51307;52.162;7.560;2023-02-04T10:36:45;103144.53;;;7.41;54.48
64841;BME280;51307;52.162;7.560;2023-02-04T10:39:15;103145.19;;;7.29;54.77
64841;BME280;51307;52.162;7.560;2023-02-04T10:41:47;103148.41;;;7.52;53.59
64841;BME280;51307;52.162;7.560;2023-02-04T10:44:15;103146.78;;;7.49;54.03
64841;BME280;51307;52.162;7.560;2023-02-04T10:46:41;103149.28;;;7.52;53.93
64841;BME280;51307;52.162;7.560;2023-02-04T10:49:22;103150.66;;;7.60;53.48
64841;BME280;51307;52.162;7.560;2023-02-04T10:51:50;103151.44;;;7.62;53.48
64841;BME280;51307;52.162;7.560;2023-02-04T10:54:20;103155.97;;;7.60;53.51
64841;BME280;51307;52.162;7.560;2023-02-04T10:59:28;103151.19;;;7.66;53.54
64841;BME280;51307;52.162;7.560;2023-02-04T11:01:56;103152.56;;;7.57;53.53
64841;BME280;51307;52.162;7.560;2023-02-04T11:04:23;103156.69;;;7.63;53.44
64841;BME280;51307;52.162;7.560;2023-02-04T11:06:51;103153.66;;;7.69;53.30
64841;BME280;51307;52.162;7.560;2023-02-04T11:09:20;103154.88;;;7.64;53.01
64841;BME280;51307;52.162;7.560;2023-02-04T11:11:48;103145.09;;;7.64;53.09
64841;BME280;51307;52.162;7.560;2023-02-04T11:14:40;103146.47;;;7.71;53.34
64841;BME280;51307;52.162;7.560;2023-02-04T11:17:06;103143.41;;;7.46;53.23
64841;BME280;51307;52.162;7.560;2023-02-04T11:19:36;103146.72;;;7.67;53.42
64841;BME280;51307;52.162;7.560;2023-02-04T11:22:06;103144.41;;;7.77;53.49
64841;BME280;51307;52.162;7.560;2023-02-04T11:24:33;103147.16;;;7.75;53.32
64841;BME280;51307;52.162;7.560;2023-02-04T11:27:17;103148.63;;;7.81;52.53
64841;BME280;51307;52.162;7.560;2023-02-04T11:29:43;103160.84;;;7.85;52.41
64841;BME280;51307;52.162;7.560;2023-02-04T11:34:53;103151.72;;;7.73;52.34
64841;BME280;51307;52.162;7.560;2023-02-04T11:37:37;103157.72;;;7.61;53.24
64841;BME280;51307;52.162;7.560;2023-02-04T11:40:33;103161.06;;;7.80;53.44
64841;BME280;51307;52.162;7.560;2023-02-04T11:43:12;103152.06;;;7.83;52.83
64841;BME280;51307;52.162;7.560;2023-02-04T11:45:40;103142.19;;;7.85;52.57
64841;BME280;51307;52.162;7.560;2023-02-04T11:48:18;103150.44;;;7.96;52.38
64841;BME280;51307;52.162;7.560;2023-02-04T11:50:58;103142.44;;;7.96;53.10
64841;BME280;51307;52.162;7.560;2023-02-04T11:53:31;103149.59;;;7.96;52.61
64841;BME280;51307;52.162;7.560;2023-02-04T11:55:57;103155.06;;;7.77;52.50
64841;BME280;51307;52.162;7.560;2023-02-04T11:58:24;103156.38;;;8.01;52.17
64841;BME280;51307;52.162;7.560;2023-02-04T12:00:53;103158.34;;;7.98;52.00
64841;BME280;51307;52.162;7.560;2023-02-04T12:03:23;103164.97;;;8.06;51.74
64841;BME280;51307;52.162;7.560;2023-02-04T12:05:50;103158.63;;;8.09;52.43
64841;BME280;51307;52.162;7.560;2023-02-04T12:13:22;103161.81;;;8.16;51.81
64841;BME280;51307;52.162;7.560;2023-02-04T12:16:01;103157.84;;;8.23;51.95
64841;BME280;51307;52.162;7.560;2023-02-04T12:18:28;103160.84;;;8.01;52.65
64841;BME280;51307;52.162;7.560;2023-02-04T12:20:55;103165.00;;;8.22;51.71
64841;BME280;51307;52.162;7.560;2023-02-04T12:23:22;103164.19;;;8.36;50.94
64841;BME280;51307;52.162;7.560;2023-02-04T12:25:48;103168.59;;;8.37;50.79
64841;BME280;51307;52.162;7.560;2023-02-04T12:28:14;103165.50;;;8.29;50.92
64841;BME280;51307;52.162;7.560;2023-02-04T12:30:39;103163.69;;;8.30;50.95
64841;BME280;51307;52.162;7.560;2023-02-04T12:33:05;103163.00;;;8.26;50.53
64841;BME280;51307;52.162;7.560;2023-02-04T12:35:31;103168.34;;;8.26;50.96
64841;BME280;51307;52.162;7.560;2023-02-04T12:37:57;103165.00;;;8.22;51.26
64841;BME280;51307;52.162;7.560;2023-02-04T12:40:23;103176.88;;;8.33;50.78
64841;BME280;51307;52.162;7.560;2023-02-04T12:42:48;103177.53;;;8.20;50.58
64841;BME280;51307;52.162;7.560;2023-02-04T12:45:15;103177.00;;;8.14;50.57
64841;BME280;51307;52.162;7.560;2023-02-04T12:47:41;103171.78;;;8.12;51.10
64841;BME280;51307;52.162;7.560;2023-02-04T12:50:08;103173.69;;;8.26;50.61
64841;BME280;51307;52.162;7.560;2023-02-04T12:52:34;103171.78;;;8.28;50.67
64841;BME280;51307;52.162;7.560;2023-02-04T12:55:02;103167.88;;;8.34;50.62
64841;BME280;51307;52.162;7.560;2023-02-04T12:57:30;103166.09;;;8.34;49.74
64841;BME280;51307;52.162;7.560;2023-02-04T12:59:55;103169.81;;;8.32;49.76
64841;BME280;51307;52.162;7.560;2023-02-04T13:02:25;103165.69;;;8.26;49.82
64841;BME280;51307;52.162;7.560;2023-02-04T13:04:51;103170.13;;;8.25;49.94
64841;BME280;51307;52.162;7.560;2023-02-04T13:07:17;103174.25;;;8.31;50.40
64841;BME280;51307;52.162;7.560;2023-02-04T13:09:42;103170.84;;;8.29;50.05
64841;BME280;51307;52.162;7.560;2023-02-04T13:12:09;103177.53;;;8.20;50.60
64841;BME280;51307;52.162;7.560;2023-02-04T13:14:38;103170.66;;;8.32;50.94
64841;BME280;51307;52.162;7.560;2023-02-04T13:17:05;103175.56;;;8.24;51.49